Time;durP1;ratioP1;P1;durP2;ratioP2;P2;SDS_P1;SDS_P2;PMS_P1;PMS_P2;Temp;Humidity;BMP_temperature;BMP_pressure;BME280_temperature;BME280_humidity;BME280_pressure;Samples;Min_cycle;Max_cycle;Signal;HPM_P1;HPM_P2
2021/01/12 00:00:06;;;;;;;18.30;10.30;;;-0.60;16.00;;;;;;4862355;29;20050;-72
2021/01/12 00:02:33;;;;;;;21.40;11.05;;;-0.60;16.10;;;;;;4855090;29;20069;-71
2021/01/12 00:05:00;;;;;;;20.83;11.15;;;-0.60;15.20;;;;;;4854267;29;20070;-70
2021/01/12 00:07:28;;;;;;;19.48;10.52;;;-0.60;15.40;;;;;;4858711;29;20508;-70
2021/01/12 00:09:55;;;;;;;18.48;10.10;;;-0.60;15.20;;;;;;4860865;29;20046;-71
2021/01/12 00:12:23;;;;;;;19.05;10.68;;;-0.60;15.20;;;;;;4861682;29;20053;-71
2021/01/12 00:14:50;;;;;;;19.58;9.77;;;-0.60;14.90;;;;;;4858413;29;20057;-71
2021/01/12 00:17:17;;;;;;;21.10;10.82;;;-0.60;14.30;;;;;;4861120;29;20046;-71
2021/01/12 00:19:44;;;;;;;17.33;9.55;;;-0.50;14.50;;;;;;4856572;29;20057;-71
2021/01/12 00:22:15;;;;;;;19.00;10.60;;;-0.50;14.30;;;;;;4857450;29;20171;-71
2021/01/12 00:24:43;;;;;;;17.27;9.40;;;-0.50;14.00;;;;;;4861194;29;20065;-71
2021/01/12 00:27:10;;;;;;;16.95;10.20;;;-0.50;13.80;;;;;;4858486;29;20056;-72
2021/01/12 00:29:37;;;;;;;20.67;11.52;;;-0.50;14.10;;;;;;4864170;29;20053;-74
2021/01/12 00:32:05;;;;;;;17.23;9.95;;;-0.50;14.20;;;;;;4861668;29;20424;-71
2021/01/12 00:34:32;;;;;;;18.70;10.63;;;-0.60;13.60;;;;;;4860999;29;20178;-72
2021/01/12 00:37:00;;;;;;;19.77;11.07;;;-0.50;13.50;;;;;;4859643;29;20053;-72
2021/01/12 00:39:27;;;;;;;19.73;10.52;;;-0.50;14.00;;;;;;4862121;29;20058;-72
2021/01/12 00:41:56;;;;;;;20.60;10.85;;;-0.60;13.40;;;;;;4858394;29;20072;-72
2021/01/12 00:44:24;;;;;;;18.42;10.55;;;-0.50;13.60;;;;;;4857060;29;20076;-71
2021/01/12 00:46:51;;;;;;;23.88;11.77;;;-0.50;13.70;;;;;;4858156;29;20057;-73
2021/01/12 00:49:19;;;;;;;19.10;10.85;;;-0.50;13.30;;;;;;4862021;29;20053;-72
2021/01/12 00:51:47;;;;;;;20.45;10.50;;;-0.50;13.40;;;;;;4865309;29;20061;-74
2021/01/12 00:54:15;;;;;;;21.30;11.13;;;-0.50;13.30;;;;;;4859158;29;20057;-72
2021/01/12 00:56:48;;;;;;;20.42;11.10;;;-0.50;13.20;;;;;;4858688;29;20394;-72
2021/01/12 00:59:16;;;;;;;18.92;10.52;;;-0.50;13.60;;;;;;4857074;29;20053;-73
2021/01/12 01:01:43;;;;;;;21.10;11.13;;;-0.40;13.30;;;;;;4857960;29;20432;-72
2021/01/12 01:04:13;;;;;;;23.13;11.35;;;-0.40;13.00;;;;;;4855785;29;20060;-71
2021/01/12 01:06:40;;;;;;;21.50;11.60;;;-0.40;13.50;;;;;;4854486;29;20045;-71
2021/01/12 01:09:08;;;;;;;21.13;10.93;;;-0.40;13.80;;;;;;4860393;29;20407;-72
2021/01/12 01:11:40;;;;;;;19.15;11.40;;;-0.30;13.60;;;;;;4860625;29;20080;-72
2021/01/12 01:14:08;;;;;;;19.67;11.25;;;-0.30;13.30;;;;;;4858639;29;20060;-70
2021/01/12 01:16:36;;;;;;;19.65;10.18;;;-0.30;13.50;;;;;;4857486;29;20083;-71
2021/01/12 01:19:04;;;;;;;21.10;10.90;;;-0.30;13.50;;;;;;4857751;29;20144;-71
2021/01/12 01:21:31;;;;;;;19.05;10.60;;;-0.40;13.10;;;;;;4860185;29;20132;-71
2021/01/12 01:23:58;;;;;;;20.95;11.23;;;-0.30;13.10;;;;;;4855877;29;20516;-71
2021/01/12 01:26:25;;;;;;;21.80;11.65;;;-0.30;13.40;;;;;;4858173;29;20188;-71
2021/01/12 01:28:52;;;;;;;18.75;11.05;;;-0.30;13.00;;;;;;4857451;29;20046;-72
2021/01/12 01:31:19;;;;;;;21.20;10.85;;;-0.30;13.20;;;;;;4859416;29;20400;-71
2021/01/12 01:33:47;;;;;;;22.38;12.02;;;-0.30;13.10;;;;;;4857710;29;20128;-70
2021/01/12 01:36:14;;;;;;;20.35;10.73;;;-0.30;13.30;;;;;;4855187;29;20049;-71
2021/01/12 01:38:42;;;;;;;19.67;11.30;;;-0.20;13.40;;;;;;4857745;29;20053;-72
2021/01/12 01:41:10;;;;;;;21.70;11.43;;;-0.20;12.80;;;;;;4856016;29;20053;-71
2021/01/12 01:43:38;;;;;;;20.23;10.57;;;-0.20;13.40;;;;;;4856081;29;20078;-70
2021/01/12 01:46:06;;;;;;;19.58;11.07;;;-0.20;13.10;;;;;;4854698;29;20445;-72
2021/01/12 01:48:34;;;;;;;20.92;10.90;;;-0.20;13.60;;;;;;4858901;29;20053;-71
2021/01/12 01:51:03;;;;;;;21.63;11.50;;;-0.20;13.00;;;;;;4862987;29;20139;-72
2021/01/12 01:53:34;;;;;;;21.25;11.32;;;-0.20;12.80;;;;;;4862803;29;20049;-73
2021/01/12 01:56:03;;;;;;;19.15;11.43;;;-0.20;13.00;;;;;;4854435;29;20077;-72
2021/01/12 01:58:30;;;;;;;19.60;10.30;;;-0.10;13.30;;;;;;4857494;29;20423;-72
2021/01/12 02:00:57;;;;;;;20.35;11.27;;;-0.10;12.90;;;;;;4863708;29;20049;-71
2021/01/12 02:03:30;;;;;;;18.67;9.98;;;-0.10;13.30;;;;;;4863410;29;20427;-71
2021/01/12 02:06:06;;;;;;;19.90;10.02;;;-0.10;13.20;;;;;;4859560;29;20053;-71
2021/01/12 02:08:44;;;;;;;21.33;10.85;;;0.00;13.20;;;;;;4861081;29;20056;-70
2021/01/12 02:11:14;;;;;;;23.27;11.20;;;0.00;13.10;;;;;;4861736;29;20064;-69
2021/01/12 02:13:44;;;;;;;17.88;9.55;;;0.00;13.40;;;;;;4862182;29;20572;-70
2021/01/12 02:16:12;;;;;;;19.83;10.07;;;0.10;13.00;;;;;;4857010;29;20057;-71
2021/01/12 02:18:40;;;;;;;16.10;9.93;;;0.10;13.00;;;;;;4860713;29;20125;-71
2021/01/12 02:21:08;;;;;;;19.60;10.20;;;0.10;13.00;;;;;;4860082;29;20049;-71
2021/01/12 02:23:49;;;;;;;16.27;9.38;;;0.10;13.00;;;;;;4867233;29;20140;-72
2021/01/12 02:26:16;;;;;;;20.23;9.93;;;0.20;13.10;;;;;;4853384;29;20071;-70
2021/01/12 02:28:43;;;;;;;17.83;9.73;;;0.20;13.10;;;;;;4860517;29;20057;-71
2021/01/12 02:31:10;;;;;;;17.50;9.30;;;0.20;13.10;;;;;;4856993;29;20097;-71
2021/01/12 02:33:38;;;;;;;18.25;9.30;;;0.20;13.10;;;;;;4862121;29;20085;-71
2021/01/12 02:36:07;;;;;;;14.63;9.13;;;0.30;13.10;;;;;;4856128;29;20057;-70
2021/01/12 02:38:34;;;;;;;16.50;8.57;;;0.20;13.10;;;;;;4856362;29;20071;-72
2021/01/12 02:41:10;;;;;;;16.10;9.00;;;0.20;13.10;;;;;;4864271;29;20045;-71
2021/01/12 02:43:36;;;;;;;15.43;8.15;;;0.30;13.10;;;;;;4859879;29;20045;-70
2021/01/12 02:46:03;;;;;;;17.60;8.27;;;0.20;13.10;;;;;;4860274;29;20053;-71
2021/01/12 02:48:30;;;;;;;16.52;8.80;;;0.30;13.10;;;;;;4863267;29;20486;-71
2021/01/12 02:50:59;;;;;;;15.93;8.32;;;0.30;13.10;;;;;;4857669;29;20069;-71
2021/01/12 02:53:26;;;;;;;14.10;8.20;;;0.30;13.10;;;;;;4862163;29;20057;-71
2021/01/12 02:55:53;;;;;;;18.67;9.40;;;0.30;13.40;;;;;;4856352;29;20050;-71
2021/01/12 02:58:20;;;;;;;16.05;8.60;;;0.40;13.20;;;;;;4861099;29;20136;-71
2021/01/12 03:00:47;;;;;;;14.45;8.27;;;0.40;13.20;;;;;;4860453;29;20149;-71
2021/01/12 03:03:14;;;;;;;14.98;8.13;;;0.40;13.20;;;;;;4861523;29;20072;-71
2021/01/12 03:05:41;;;;;;;14.32;7.72;;;0.40;13.20;;;;;;4858593;29;20093;-73
2021/01/12 03:08:08;;;;;;;16.35;8.65;;;0.40;13.90;;;;;;4856816;29;20476;-71
2021/01/12 03:10:35;;;;;;;16.10;8.13;;;0.40;13.90;;;;;;4856359;29;20057;-71
2021/01/12 03:13:02;;;;;;;13.63;7.25;;;0.40;13.80;;;;;;4859228;29;20053;-70
2021/01/12 03:15:30;;;;;;;13.00;7.65;;;0.50;13.70;;;;;;4860177;29;20049;-71
2021/01/12 03:17:57;;;;;;;14.80;7.93;;;0.40;14.50;;;;;;4861016;29;20052;-70
2021/01/12 03:20:26;;;;;;;13.18;7.65;;;0.40;14.30;;;;;;4857890;29;20989;-70
2021/01/12 03:22:53;;;;;;;10.77;7.15;;;0.40;14.40;;;;;;4859008;29;20509;-71
2021/01/12 03:25:20;;;;;;;14.07;6.97;;;0.50;14.00;;;;;;4858179;29;20055;-71
2021/01/12 03:27:47;;;;;;;14.05;7.70;;;0.50;14.80;;;;;;4858455;29;20055;-71
2021/01/12 03:30:16;;;;;;;13.98;7.10;;;0.50;14.60;;;;;;4861274;29;20074;-71
2021/01/12 03:32:43;;;;;;;12.63;6.60;;;0.60;14.60;;;;;;4860159;29;20061;-71
2021/01/12 03:35:11;;;;;;;14.15;6.78;;;0.60;14.40;;;;;;4855408;29;20045;-70
2021/01/12 03:37:38;;;;;;;11.20;6.50;;;0.60;14.60;;;;;;4861770;29;20077;-71
2021/01/12 03:40:06;;;;;;;10.98;6.43;;;0.60;14.60;;;;;;4861404;29;20053;-71
2021/01/12 03:42:34;;;;;;;11.85;6.47;;;0.60;14.80;;;;;;4858197;29;20053;-72
2021/01/12 03:45:01;;;;;;;10.15;5.93;;;0.70;15.20;;;;;;4857401;29;20052;-70
2021/01/12 03:47:29;;;;;;;10.80;5.80;;;0.70;15.70;;;;;;4859020;29;20231;-69
2021/01/12 03:49:56;;;;;;;11.02;6.20;;;0.80;16.30;;;;;;4862177;29;20427;-71
2021/01/12 03:52:23;;;;;;;8.93;5.15;;;0.90;16.20;;;;;;4859455;29;20132;-71
2021/01/12 03:54:50;;;;;;;11.18;5.93;;;0.90;16.10;;;;;;4859602;29;20049;-71
2021/01/12 03:57:17;;;;;;;9.48;5.45;;;1.00;16.00;;;;;;4853967;29;20068;-72
2021/01/12 03:59:44;;;;;;;8.98;5.25;;;1.00;16.30;;;;;;4864295;29;20056;-72
2021/01/12 04:02:11;;;;;;;11.50;5.60;;;1.00;16.20;;;;;;4859886;29;20064;-71
2021/01/12 04:04:38;;;;;;;10.77;5.32;;;1.00;16.40;;;;;;4857679;29;20766;-72
2021/01/12 04:07:06;;;;;;;10.60;5.63;;;1.00;16.20;;;;;;4862220;29;20071;-71
2021/01/12 04:09:33;;;;;;;9.43;5.22;;;1.00;16.30;;;;;;4858992;29;20101;-71
2021/01/12 04:12:00;;;;;;;11.52;5.72;;;1.00;16.60;;;;;;4864875;29;20393;-72
2021/01/12 04:14:27;;;;;;;10.25;6.03;;;1.10;16.50;;;;;;4858262;29;20079;-72
2021/01/12 04:16:54;;;;;;;11.32;5.85;;;1.00;16.70;;;;;;4854098;29;20162;-71
2021/01/12 04:19:21;;;;;;;10.80;5.45;;;1.00;16.90;;;;;;4858565;29;20049;-72
2021/01/12 04:21:47;;;;;;;8.48;5.05;;;1.00;17.00;;;;;;4861428;29;20050;-71
2021/01/12 04:24:15;;;;;;;9.13;5.35;;;1.00;17.60;;;;;;4859041;29;20151;-71
2021/01/12 04:26:42;;;;;;;9.10;4.88;;;1.00;18.20;;;;;;4859808;29;20061;-71
2021/01/12 04:29:09;;;;;;;10.63;5.47;;;1.00;18.70;;;;;;4856341;29;20049;-71
2021/01/12 04:31:36;;;;;;;9.55;5.28;;;0.90;19.20;;;;;;4862473;29;20056;-71
2021/01/12 04:34:03;;;;;;;11.35;5.55;;;1.00;19.40;;;;;;4860418;29;20049;-72
2021/01/12 04:36:30;;;;;;;11.35;6.22;;;1.00;19.60;;;;;;4858236;29;20166;-72
2021/01/12 04:38:57;;;;;;;11.00;5.95;;;1.00;20.50;;;;;;4858155;29;20049;-71
2021/01/12 04:41:24;;;;;;;9.25;5.55;;;1.00;20.50;;;;;;4858384;29;20049;-71
2021/01/12 04:43:51;;;;;;;9.02;5.20;;;1.00;20.50;;;;;;4858485;29;20055;-72
2021/01/12 04:46:18;;;;;;;10.77;5.70;;;1.10;20.60;;;;;;4855362;29;20061;-73
2021/01/12 04:48:48;;;;;;;10.18;5.85;;;1.10;20.60;;;;;;4856414;29;20485;-71
2021/01/12 04:51:15;;;;;;;9.80;4.95;;;1.10;20.70;;;;;;4858061;29;20578;-73
2021/01/12 04:53:46;;;;;;;8.40;4.90;;;1.20;20.60;;;;;;4859616;29;20136;-72
2021/01/12 04:56:14;;;;;;;9.30;5.45;;;1.20;20.60;;;;;;4857031;29;20053;-72
2021/01/12 04:58:43;;;;;;;10.23;5.03;;;1.30;20.70;;;;;;4858732;29;20065;-72
2021/01/12 05:01:14;;;;;;;9.10;5.22;;;1.30;20.70;;;;;;4858154;29;20432;-70
2021/01/12 05:03:43;;;;;;;7.47;4.35;;;1.30;20.50;;;;;;4854312;29;20144;-72
2021/01/12 05:06:11;;;;;;;9.48;5.25;;;1.30;20.20;;;;;;4853850;29;20152;-72
2021/01/12 05:08:41;;;;;;;10.15;5.43;;;1.30;20.30;;;;;;4857545;29;20077;-72
2021/01/12 05:11:09;;;;;;;10.48;5.00;;;1.30;20.00;;;;;;4861632;29;20049;-72
2021/01/12 05:13:41;;;;;;;9.10;4.97;;;1.40;19.70;;;;;;4860261;29;20052;-73
2021/01/12 05:16:10;;;;;;;11.57;5.95;;;1.40;19.40;;;;;;4856666;29;20061;-71
2021/01/12 05:18:40;;;;;;;11.38;5.85;;;1.30;19.40;;;;;;4855442;29;20084;-72
2021/01/12 05:21:11;;;;;;;10.98;6.03;;;1.30;19.40;;;;;;4860679;29;20559;-72
2021/01/12 05:23:52;;;;;;;9.18;5.15;;;1.30;19.40;;;;;;4861711;29;20049;-74
2021/01/12 05:26:20;;;;;;;9.48;4.75;;;1.30;19.60;;;;;;4851616;29;20046;-73
2021/01/12 05:28:47;;;;;;;8.93;4.50;;;1.30;20.10;;;;;;4864703;29;20049;-72
2021/01/12 05:31:15;;;;;;;9.48;4.55;;;1.40;20.70;;;;;;4861145;29;20060;-72
2021/01/12 05:33:44;;;;;;;9.75;5.35;;;1.40;20.70;;;;;;4861205;29;20532;-72
2021/01/12 05:36:11;;;;;;;9.00;4.65;;;1.40;20.80;;;;;;4859342;29;20451;-71
2021/01/12 05:38:38;;;;;;;9.55;4.75;;;1.40;20.70;;;;;;4863093;29;20057;-72
2021/01/12 05:41:05;;;;;;;8.38;4.78;;;1.40;20.70;;;;;;4861448;29;20503;-72
2021/01/12 05:43:37;;;;;;;7.65;4.70;;;1.50;21.10;;;;;;4859865;29;20102;-71
2021/01/12 05:46:08;;;;;;;7.70;4.07;;;1.50;21.80;;;;;;4860977;29;20053;-73
2021/01/12 05:48:38;;;;;;;8.82;4.57;;;1.60;22.20;;;;;;4863777;29;20145;-71
2021/01/12 05:51:07;;;;;;;7.68;4.72;;;1.60;22.50;;;;;;4863204;29;20416;-71
2021/01/12 05:53:48;;;;;;;6.97;3.90;;;1.70;22.70;;;;;;4862089;29;20104;-71
2021/01/12 05:56:21;;;;;;;6.65;3.60;;;1.70;22.80;;;;;;4858837;29;20072;-72
2021/01/12 05:58:48;;;;;;;6.53;3.40;;;1.80;23.30;;;;;;4865439;29;20060;-72
2021/01/12 06:01:24;;;;;;;7.50;3.72;;;1.90;23.80;;;;;;4861011;29;20068;-70
2021/01/12 06:03:53;;;;;;;6.28;3.47;;;2.00;24.20;;;;;;4865248;29;20136;-71
2021/01/12 06:06:21;;;;;;;7.60;3.95;;;2.10;24.60;;;;;;4859443;29;20061;-71
2021/01/12 06:08:49;;;;;;;5.80;3.25;;;2.10;25.20;;;;;;4860637;29;20049;-72
2021/01/12 06:11:19;;;;;;;5.78;3.25;;;2.10;26.20;;;;;;4861003;29;20116;-72
2021/01/12 06:13:54;;;;;;;6.97;4.10;;;2.10;27.00;;;;;;4864612;29;20064;-70
2021/01/12 06:16:24;;;;;;;7.70;3.97;;;2.10;27.90;;;;;;4860978;29;20065;-71
2021/01/12 06:19:07;;;;;;;6.43;3.72;;;2.00;28.20;;;;;;4863428;29;20049;-72
2021/01/12 06:21:36;;;;;;;6.10;3.53;;;1.90;29.20;;;;;;4861446;29;20402;-71
2021/01/12 06:24:10;;;;;;;9.65;4.60;;;1.90;29.10;;;;;;4862429;29;20045;-71
2021/01/12 06:26:40;;;;;;;9.77;4.97;;;1.90;29.20;;;;;;4857492;29;20076;-69
2021/01/12 06:29:08;;;;;;;8.40;4.40;;;1.80;30.30;;;;;;4861244;29;20054;-72
2021/01/12 06:31:46;;;;;;;9.38;4.00;;;1.80;31.10;;;;;;4865206;29;20050;-71
2021/01/12 06:34:21;;;;;;;8.95;4.38;;;1.80;31.00;;;;;;4860744;29;20479;-71
2021/01/12 06:36:51;;;;;;;7.85;4.50;;;1.70;32.50;;;;;;4859750;29;21190;-71
2021/01/12 06:39:21;;;;;;;9.05;4.50;;;1.70;33.70;;;;;;4862137;29;20512;-72
2021/01/12 06:41:49;;;;;;;9.10;4.78;;;1.70;35.10;;;;;;4862316;29;20049;-73
2021/01/12 06:44:24;;;;;;;8.77;4.90;;;1.60;35.20;;;;;;4861337;29;20057;-71
2021/01/12 06:46:51;;;;;;;;;;;1.60;35.90;;;;;;4860692;29;20630;-71
2021/01/12 06:49:20;;;;;;;8.18;5.32;;;1.50;36.20;;;;;;4864337;29;19935;-72
2021/01/12 06:51:59;;;;;;;8.30;5.13;;;1.50;36.30;;;;;;4863628;29;20049;-70
2021/01/12 06:54:31;;;;;;;9.82;4.55;;;1.50;37.00;;;;;;4858555;29;20045;-71
2021/01/12 06:57:00;;;;;;;9.38;5.20;;;1.50;37.10;;;;;;4860826;29;20073;-69
2021/01/12 06:59:34;;;;;;;9.52;5.18;;;1.60;35.80;;;;;;4861455;29;20057;-70
2021/01/12 07:02:05;;;;;;;9.77;5.90;;;1.60;36.20;;;;;;4860993;29;20056;-73
2021/01/12 07:04:33;;;;;;;11.30;5.78;;;1.60;35.30;;;;;;4859541;29;20053;-71
2021/01/12 07:07:01;;;;;;;14.02;5.60;;;1.60;35.20;;;;;;4858271;29;20045;-71
2021/01/12 07:09:29;;;;;;;9.63;5.00;;;1.50;35.20;;;;;;4861777;29;20053;-70
2021/01/12 07:12:07;;;;;;;10.00;4.82;;;1.60;35.20;;;;;;4856100;29;20045;-71
2021/01/12 07:14:45;;;;;;;9.25;5.22;;;1.50;35.20;;;;;;4858457;29;20068;-72
2021/01/12 07:17:11;;;;;;;9.98;5.47;;;1.60;35.20;;;;;;4858065;29;20065;-71
2021/01/12 07:19:39;;;;;;;10.00;5.57;;;1.50;35.20;;;;;;4860816;29;20179;-71
2021/01/12 07:22:10;;;;;;;8.18;4.93;;;1.50;35.80;;;;;;4860816;29;20049;-72
2021/01/12 07:24:38;;;;;;;7.53;4.50;;;1.50;36.60;;;;;;4859275;29;20049;-71
2021/01/12 07:27:07;;;;;;;7.55;4.43;;;1.50;35.90;;;;;;4858460;29;20152;-72
2021/01/12 07:29:49;;;;;;;8.45;4.45;;;1.50;36.10;;;;;;4861285;29;20046;-69
2021/01/12 07:32:29;;;;;;;7.82;4.43;;;1.60;37.90;;;;;;4859508;29;20055;-71
2021/01/12 07:35:00;;;;;;;11.32;5.40;;;1.50;39.30;;;;;;4863371;29;20427;-74
2021/01/12 07:37:36;;;;;;;8.82;5.20;;;1.50;40.20;;;;;;4858600;29;20073;-72
2021/01/12 07:40:06;;;;;;;11.05;4.57;;;1.60;41.00;;;;;;4858692;29;20072;-72
2021/01/12 07:42:34;;;;;;;8.05;4.68;;;1.60;40.80;;;;;;4860546;29;20671;-72
2021/01/12 07:45:01;;;;;;;7.05;3.80;;;1.60;40.20;;;;;;4856753;29;20415;-72
2021/01/12 07:47:28;;;;;;;8.38;4.47;;;1.70;39.80;;;;;;4856324;29;20056;-71
2021/01/12 07:50:00;;;;;;;8.90;4.20;;;1.80;39.60;;;;;;4863440;29;20136;-72
2021/01/12 07:52:27;;;;;;;6.88;4.22;;;1.80;39.30;;;;;;4861819;29;20056;-70
2021/01/12 07:54:54;;;;;;;7.45;4.13;;;1.80;39.10;;;;;;4860770;29;20059;-72
2021/01/12 07:57:22;;;;;;;8.55;4.57;;;1.90;38.40;;;;;;4856099;29;20453;-71
2021/01/12 07:59:50;;;;;;;7.78;4.60;;;1.90;38.70;;;;;;4863475;29;20049;-71
2021/01/12 08:02:18;;;;;;;7.93;4.18;;;1.90;39.10;;;;;;4862377;29;20060;-71
2021/01/12 08:04:45;;;;;;;6.68;3.95;;;1.90;39.60;;;;;;4859430;29;20500;-72
2021/01/12 08:07:23;;;;;;;8.00;3.80;;;1.90;38.60;;;;;;4856472;29;20064;-73
2021/01/12 08:09:57;;;;;;;7.55;3.90;;;1.90;39.60;;;;;;4861204;29;20045;-70
2021/01/12 08:12:24;;;;;;;8.68;4.13;;;1.90;39.10;;;;;;4861273;29;20412;-72
2021/01/12 08:14:53;;;;;;;7.07;4.10;;;1.90;39.10;;;;;;4858121;29;20056;-72
2021/01/12 08:17:21;;;;;;;6.13;3.58;;;1.90;39.00;;;;;;4855942;29;20052;-72
2021/01/12 08:19:48;;;;;;;7.85;4.00;;;1.90;39.00;;;;;;4857244;29;20049;-73
2021/01/12 08:22:17;;;;;;;6.40;3.75;;;2.00;39.30;;;;;;4861851;29;20051;-73
2021/01/12 08:24:46;;;;;;;7.75;4.65;;;2.00;37.90;;;;;;4858689;29;20150;-72
2021/01/12 08:27:14;;;;;;;7.28;4.15;;;2.00;37.70;;;;;;4855222;29;20059;-71
2021/01/12 08:29:42;;;;;;;5.70;3.72;;;2.10;37.90;;;;;;4858161;29;20100;-70
2021/01/12 08:32:11;;;;;;;7.57;4.00;;;2.10;36.70;;;;;;4858118;29;20045;-70
2021/01/12 08:34:51;;;;;;;9.15;4.32;;;2.00;37.10;;;;;;4859540;29;20059;-71
2021/01/12 08:37:20;;;;;;;6.47;3.78;;;2.10;36.70;;;;;;4854941;29;20050;-73
2021/01/12 08:39:48;;;;;;;6.80;4.03;;;2.10;35.70;;;;;;4860201;29;20060;-71
2021/01/12 08:42:18;;;;;;;5.30;3.35;;;2.10;35.90;;;;;;4860583;29;20049;-72
2021/01/12 08:44:46;;;;;;;9.90;4.72;;;2.10;37.10;;;;;;4860851;29;20508;-71
2021/01/12 08:47:13;;;;;;;8.25;4.22;;;2.10;36.80;;;;;;4854478;29;20061;-72
2021/01/12 08:49:40;;;;;;;7.97;3.50;;;2.10;36.30;;;;;;4862471;29;20063;-72
2021/01/12 08:52:07;;;;;;;7.32;3.85;;;2.10;36.70;;;;;;4856310;29;20179;-71
2021/01/12 08:54:35;;;;;;;6.07;3.55;;;2.10;37.60;;;;;;4859874;29;20056;-74
2021/01/12 08:57:05;;;;;;;7.00;3.97;;;2.10;38.00;;;;;;4854707;29;20057;-74
2021/01/12 08:59:33;;;;;;;8.02;3.88;;;2.10;38.40;;;;;;4859769;29;20171;-71
2021/01/12 09:02:01;;;;;;;6.07;3.70;;;2.10;38.50;;;;;;4854092;29;20057;-71
2021/01/12 09:04:29;;;;;;;5.53;3.10;;;2.10;38.80;;;;;;4858405;29;20061;-73
2021/01/12 09:07:07;;;;;;;5.75;3.42;;;2.10;39.70;;;;;;4856844;29;20424;-74
2021/01/12 09:09:34;;;;;;;7.80;3.20;;;2.10;40.50;;;;;;4856374;29;20057;-75
2021/01/12 09:12:10;;;;;;;5.30;3.00;;;2.10;41.50;;;;;;4857076;29;20823;-71
2021/01/12 09:14:46;;;;;;;4.80;2.70;;;2.10;41.90;;;;;;4857983;29;20053;-73
2021/01/12 09:17:16;;;;;;;4.15;2.25;;;2.10;43.80;;;;;;4851025;29;20584;-74
2021/01/12 09:19:47;;;;;;;2.97;1.70;;;2.20;44.00;;;;;;4864822;29;20057;-72
2021/01/12 09:22:16;;;;;;;3.08;1.50;;;2.20;44.00;;;;;;4859709;29;20469;-72
2021/01/12 09:24:47;;;;;;;3.35;1.90;;;2.30;44.50;;;;;;4857812;29;20165;-72
2021/01/12 09:27:26;;;;;;;2.72;1.73;;;2.30;45.70;;;;;;4851891;29;20049;-70
2021/01/12 09:29:53;;;;;;;2.47;1.50;;;2.20;47.00;;;;;;4859563;29;20053;-71
2021/01/12 09:32:28;;;;;;;3.40;1.52;;;2.20;48.30;;;;;;4860856;29;20129;-71
2021/01/12 09:34:56;;;;;;;2.70;1.27;;;2.20;48.60;;;;;;4859777;29;20053;-72
2021/01/12 09:37:23;;;;;;;1.10;1.00;;;2.20;49.50;;;;;;4850048;29;20061;-73
2021/01/12 09:39:55;;;;;;;4.65;1.23;;;2.20;50.50;;;;;;4852979;29;20054;-71
2021/01/12 09:42:24;;;;;;;2.08;1.23;;;2.10;51.50;;;;;;4860546;29;20065;-72
2021/01/12 09:45:07;;;;;;;16.02;3.25;;;2.20;52.00;;;;;;4856427;29;20456;-69
2021/01/12 09:47:36;;;;;;;2.72;1.20;;;2.10;51.90;;;;;;4857052;29;20393;-72
2021/01/12 09:50:04;;;;;;;2.63;1.20;;;2.00;53.60;;;;;;4855172;29;20052;-73
2021/01/12 09:52:31;;;;;;;1.98;1.40;;;2.00;54.90;;;;;;4857987;29;20059;-72
2021/01/12 09:54:58;;;;;;;5.93;2.78;;;2.00;55.80;;;;;;4855731;29;20079;-72
2021/01/12 09:57:26;;;;;;;3.50;1.30;;;2.00;57.20;;;;;;4854629;29;20173;-72
2021/01/12 09:59:52;;;;;;;2.50;1.40;;;2.00;57.80;;;;;;4861340;29;20057;-75
2021/01/12 10:02:19;;;;;;;2.13;1.02;;;1.90;58.60;;;;;;4859094;29;20485;-71
2021/01/12 10:04:46;;;;;;;1.70;1.15;;;1.90;59.50;;;;;;4857844;29;20049;-70
2021/01/12 10:07:13;;;;;;;5.97;2.95;;;1.90;59.50;;;;;;4858153;29;20071;-72
2021/01/12 10:09:40;;;;;;;2.88;1.33;;;1.90;59.50;;;;;;4860007;29;20057;-73
2021/01/12 10:12:07;;;;;;;2.88;1.23;;;1.90;60.80;;;;;;4857464;29;20060;-71
2021/01/12 10:14:35;;;;;;;2.38;1.30;;;1.90;60.70;;;;;;4859907;29;20252;-75
2021/01/12 10:17:03;;;;;;;1.98;1.35;;;1.90;61.00;;;;;;4855103;29;20444;-72
2021/01/12 10:19:31;;;;;;;3.10;1.23;;;1.90;61.50;;;;;;4859919;29;20056;-72
2021/01/12 10:21:58;;;;;;;6.72;2.60;;;1.90;61.70;;;;;;4858910;29;20049;-72
2021/01/12 10:24:26;;;;;;;1.88;1.20;;;1.90;61.30;;;;;;4861482;29;20089;-71
2021/01/12 10:26:53;;;;;;;4.60;1.45;;;1.90;61.20;;;;;;4859038;29;20079;-70
2021/01/12 10:29:21;;;;;;;4.05;1.50;;;1.90;61.80;;;;;;4858972;29;20094;-72
2021/01/12 10:31:50;;;;;;;4.03;1.45;;;1.90;61.30;;;;;;4862061;29;20100;-72
2021/01/12 10:34:17;;;;;;;2.15;1.20;;;2.00;61.80;;;;;;4857464;29;20512;-72
2021/01/12 10:36:49;;;;;;;2.53;1.02;;;2.00;62.10;;;;;;4859406;29;20489;-72
2021/01/12 10:39:16;;;;;;;3.67;1.30;;;2.00;61.70;;;;;;4862313;29;20146;-71
2021/01/12 10:41:43;;;;;;;2.08;1.20;;;2.10;61.90;;;;;;4862111;29;20069;-71
2021/01/12 10:44:10;;;;;;;2.15;0.90;;;2.10;61.30;;;;;;4859220;29;20065;-71
2021/01/12 10:46:37;;;;;;;6.18;1.05;;;2.10;60.70;;;;;;4859226;29;20067;-71
2021/01/12 10:49:05;;;;;;;3.05;0.90;;;2.20;61.20;;;;;;4862617;29;20076;-72
2021/01/12 10:51:32;;;;;;;2.35;0.90;;;2.20;59.70;;;;;;4862919;29;20128;-71
2021/01/12 10:53:59;;;;;;;6.68;1.60;;;2.30;59.60;;;;;;4859266;29;20137;-70
2021/01/12 10:56:26;;;;;;;1.38;0.90;;;2.30;59.80;;;;;;4860593;29;20506;-73
2021/01/12 10:58:53;;;;;;;4.22;1.13;;;2.30;59.80;;;;;;4857881;29;20542;-72
2021/01/12 11:01:21;;;;;;;1.45;0.90;;;2.30;59.80;;;;;;4859992;29;20073;-71
2021/01/12 11:03:49;;;;;;;1.30;1.10;;;2.30;59.80;;;;;;4863444;29;20057;-70
2021/01/12 11:06:19;;;;;;;3.35;1.10;;;2.20;59.70;;;;;;4857877;29;20145;-72
2021/01/12 11:08:47;;;;;;;7.00;3.40;;;2.30;59.90;;;;;;4863985;29;20057;-68
2021/01/12 11:11:19;;;;;;;1.80;0.75;;;2.30;58.40;;;;;;4865497;29;20053;-72
2021/01/12 11:13:47;;;;;;;1.13;0.82;;;2.30;59.80;;;;;;4863297;29;20058;-70
2021/01/12 11:16:17;;;;;;;2.47;0.85;;;2.30;59.80;;;;;;4857269;29;20461;-72
2021/01/12 11:18:46;;;;;;;1.15;0.70;;;2.30;59.80;;;;;;4858127;29;20297;-71
2021/01/12 11:21:13;;;;;;;1.10;0.60;;;2.30;59.90;;;;;;4860135;29;20057;-73
2021/01/12 11:23:41;;;;;;;3.30;0.77;;;2.40;59.90;;;;;;4860475;29;20060;-71
2021/01/12 11:26:08;;;;;;;2.30;1.10;;;2.40;59.90;;;;;;4860433;29;20140;-72
2021/01/12 11:36:48;;;;;;;1.33;0.75;;;2.50;59.30;;;;;;4858602;29;20081;-74
2021/01/12 11:39:18;;;;;;;1.63;0.70;;;2.50;58.50;;;;;;4857587;29;20064;-72
2021/01/12 11:41:47;;;;;;;4.20;0.90;;;2.50;59.00;;;;;;4856553;29;20064;-72
2021/01/12 11:44:14;;;;;;;0.95;0.60;;;2.50;58.60;;;;;;4866722;29;20144;-72
2021/01/12 11:46:43;;;;;;;4.53;0.73;;;2.50;59.10;;;;;;4862035;29;20469;-73
2021/01/12 11:49:10;;;;;;;2.90;0.80;;;2.50;58.70;;;;;;4860176;29;20419;-71
2021/01/12 11:51:38;;;;;;;1.42;0.50;;;2.50;59.10;;;;;;4858550;29;20104;-72
2021/01/12 11:54:06;;;;;;;7.93;0.73;;;2.60;57.20;;;;;;4860793;29;20052;-72
2021/01/12 11:56:35;;;;;;;0.75;0.50;;;2.60;58.30;;;;;;4854298;29;20053;-70
2021/01/12 11:59:02;;;;;;;1.15;0.75;;;2.60;58.20;;;;;;4859386;29;20053;-71
2021/01/12 12:01:29;;;;;;;0.73;0.50;;;2.60;57.40;;;;;;4862072;29;20483;-73
2021/01/12 12:03:56;;;;;;;0.45;0.40;;;2.60;57.40;;;;;;4860919;29;20072;-71
2021/01/12 12:06:23;;;;;;;6.50;1.35;;;2.60;57.00;;;;;;4857407;29;20421;-72
2021/01/12 12:08:50;;;;;;;4.22;2.08;;;2.70;58.60;;;;;;4861205;29;20164;-70
2021/01/12 12:11:17;;;;;;;3.70;0.90;;;2.70;56.80;;;;;;4865036;29;20055;-71
2021/01/12 12:13:45;;;;;;;1.10;0.68;;;2.60;57.00;;;;;;4861133;29;20076;-75
2021/01/12 12:16:15;;;;;;;0.73;0.52;;;2.60;57.90;;;;;;4856998;29;20060;-71
2021/01/12 12:18:42;;;;;;;2.55;0.50;;;2.60;57.60;;;;;;4857810;29;20470;-71
2021/01/12 12:21:13;;;;;;;2.45;0.73;;;2.60;57.90;;;;;;4859482;29;20063;-71
2021/01/12 12:23:41;;;;;;;0.77;0.57;;;2.70;58.70;;;;;;4864327;29;20071;-72
2021/01/12 12:26:09;;;;;;;2.65;0.70;;;2.70;56.80;;;;;;4854194;29;20064;-71
2021/01/12 12:28:36;;;;;;;1.35;0.85;;;2.70;57.50;;;;;;4857435;29;20706;-69
2021/01/12 12:31:04;;;;;;;0.98;0.47;;;2.70;56.70;;;;;;4860674;29;20060;-73
2021/01/12 12:33:35;;;;;;;1.85;0.60;;;2.70;56.50;;;;;;4860874;29;20049;-71
2021/01/12 12:36:05;;;;;;;1.10;0.57;;;2.70;57.20;;;;;;4858368;29;20056;-71
2021/01/12 12:38:34;;;;;;;1.33;0.60;;;2.70;58.00;;;;;;4857066;29;20060;-73
2021/01/12 12:41:06;;;;;;;2.22;0.77;;;2.70;57.80;;;;;;4860219;29;20056;-71
2021/01/12 12:43:37;;;;;;;1.90;0.60;;;2.70;57.20;;;;;;4860076;29;20133;-72
2021/01/12 12:46:06;;;;;;;2.15;0.70;;;2.60;57.60;;;;;;4855973;29;20049;-71
2021/01/12 12:48:34;;;;;;;1.50;0.70;;;2.60;57.80;;;;;;4854574;29;20045;-72
2021/01/12 12:51:01;;;;;;;1.38;0.70;;;2.60;58.20;;;;;;4856745;29;20075;-71
2021/01/12 12:53:30;;;;;;;1.40;0.40;;;2.60;58.80;;;;;;4862455;29;20051;-72
2021/01/12 12:55:58;;;;;;;1.20;0.60;;;2.60;59.20;;;;;;4853871;29;20100;-71
2021/01/12 12:58:25;;;;;;;1.13;0.55;;;2.50;60.10;;;;;;4859268;29;20152;-71
2021/01/12 13:00:52;;;;;;;1.52;0.60;;;2.50;60.10;;;;;;4859907;29;20129;-72
2021/01/12 13:03:21;;;;;;;1.23;0.70;;;2.50;61.30;;;;;;4859687;29;20049;-73
2021/01/12 13:05:48;;;;;;;1.23;0.60;;;2.50;61.00;;;;;;4856985;29;20056;-71